createdAt,value
2023-02-16T00:00:45.695Z,0.00
2023-02-16T00:01:45.693Z,0.00
2023-02-16T00:02:45.729Z,0.00
2023-02-16T00:03:45.771Z,0.00
2023-02-16T00:04:45.661Z,0.00
2023-02-16T00:05:45.662Z,0.00
2023-02-16T00:06:45.642Z,0.00
2023-02-16T00:07:45.636Z,0.00
2023-02-16T00:08:45.627Z,0.00
2023-02-16T00:09:45.616Z,0.00
2023-02-16T00:11:45.603Z,0.00
2023-02-16T00:12:45.586Z,0.00
2023-02-16T00:13:45.586Z,0.00
2023-02-16T00:14:45.574Z,0.00
2023-02-16T00:15:45.606Z,0.00
2023-02-16T00:16:45.549Z,0.00
2023-02-16T00:17:45.540Z,0.00
2023-02-16T00:18:45.530Z,0.00
2023-02-16T00:19:45.549Z,0.00
2023-02-16T00:20:45.578Z,0.00
2023-02-16T00:21:45.507Z,0.00
2023-02-16T00:22:45.493Z,0.00
2023-02-16T00:23:45.485Z,0.00
2023-02-16T00:24:45.481Z,0.00
2023-02-16T00:25:45.472Z,0.00
2023-02-16T00:28:53.223Z,0.00
2023-02-16T00:29:53.234Z,0.00
2023-02-16T00:31:53.361Z,0.00
2023-02-16T00:34:53.232Z,0.00
2023-02-16T00:35:53.147Z,0.00
2023-02-16T00:36:53.516Z,0.00
2023-02-16T00:39:55.729Z,0.00
2023-02-16T00:40:55.721Z,0.00
2023-02-16T00:41:53.092Z,0.00
2023-02-16T00:42:53.087Z,0.00
2023-02-16T00:43:53.074Z,0.00
2023-02-16T00:44:53.063Z,0.00
2023-02-16T00:45:53.103Z,0.00
2023-02-16T00:46:53.045Z,0.00
2023-02-16T00:47:53.040Z,0.00
2023-02-16T00:48:53.026Z,0.00
2023-02-16T00:50:53.043Z,0.00
2023-02-16T00:51:53.008Z,0.00
2023-02-16T00:52:52.985Z,0.00
2023-02-16T00:53:52.981Z,0.00
2023-02-16T00:54:52.970Z,0.00
2023-02-16T00:55:52.964Z,0.00
2023-02-16T00:56:52.951Z,0.00
2023-02-16T00:57:52.956Z,0.00
2023-02-16T00:58:52.947Z,0.00
2023-02-16T00:59:52.945Z,0.00
2023-02-16T01:00:52.920Z,0.00
2023-02-16T01:01:52.989Z,0.00
2023-02-16T01:02:52.891Z,0.00
2023-02-16T01:03:52.888Z,0.00
2023-02-16T01:04:53.102Z,0.00
2023-02-16T01:10:45.407Z,0.00
2023-02-16T01:16:45.688Z,0.00
2023-02-16T01:17:45.479Z,0.00
2023-02-16T01:18:45.469Z,0.00
2023-02-16T01:19:45.470Z,0.00
2023-02-16T01:20:45.450Z,0.00
2023-02-16T01:21:45.442Z,0.00
2023-02-16T01:22:45.428Z,0.00
2023-02-16T01:23:45.424Z,0.00
2023-02-16T01:24:45.417Z,0.00
2023-02-16T01:25:45.419Z,0.00
2023-02-16T01:26:45.410Z,0.00
2023-02-16T01:27:45.386Z,0.00
2023-02-16T01:28:45.377Z,0.00
2023-02-16T01:29:45.403Z,0.00
2023-02-16T01:30:45.365Z,0.00
2023-02-16T01:31:45.479Z,0.00
2023-02-16T01:32:45.344Z,0.00
2023-02-16T01:33:45.344Z,0.00
2023-02-16T01:34:45.323Z,0.00
2023-02-16T01:35:45.321Z,0.00
2023-02-16T01:36:45.313Z,0.00
2023-02-16T01:37:45.303Z,0.00
2023-02-16T01:38:45.863Z,0.00
2023-02-16T01:39:45.292Z,0.00
2023-02-16T01:40:45.277Z,0.00
2023-02-16T01:41:45.272Z,0.00
2023-02-16T01:42:45.282Z,0.00
2023-02-16T01:44:48.290Z,0.00
2023-02-16T01:45:47.859Z,0.00
2023-02-16T01:46:47.902Z,0.00
2023-02-16T01:47:45.220Z,0.00
2023-02-16T01:50:45.206Z,0.00
2023-02-16T01:52:45.179Z,0.00
2023-02-16T01:53:45.174Z,0.00
2023-02-16T01:54:45.161Z,0.00
2023-02-16T01:55:45.152Z,0.00
2023-02-16T01:56:45.143Z,0.00
2023-02-16T01:57:45.194Z,0.00
2023-02-16T01:58:45.144Z,0.00
2023-02-16T01:59:45.133Z,0.00
2023-02-16T02:00:45.113Z,0.00
2023-02-16T02:01:45.209Z,0.00
2023-02-16T02:02:45.123Z,0.00
2023-02-16T02:03:45.087Z,0.00
2023-02-16T02:04:45.074Z,0.00
2023-02-16T02:05:45.074Z,0.00
2023-02-16T02:06:45.072Z,0.00
2023-02-16T02:07:45.065Z,0.00
2023-02-16T02:08:45.040Z,0.00
2023-02-16T02:09:45.031Z,0.00
2023-02-16T02:10:45.020Z,0.00
2023-02-16T02:11:45.020Z,0.00
2023-02-16T02:12:45.014Z,0.00
2023-02-16T02:13:45.013Z,0.00
2023-02-16T02:14:45.003Z,0.00
2023-02-16T02:15:45.003Z,0.00
2023-02-16T02:16:44.966Z,0.00
2023-02-16T02:17:44.964Z,0.00
2023-02-16T02:18:44.966Z,0.00
2023-02-16T02:19:44.935Z,0.00
2023-02-16T02:20:44.923Z,0.00
2023-02-16T02:21:44.917Z,0.00
2023-02-16T02:22:44.903Z,0.00
2023-02-16T02:23:44.894Z,0.00
2023-02-16T02:24:44.885Z,0.00
2023-02-16T02:25:44.910Z,0.00
2023-02-16T02:26:44.869Z,0.00
2023-02-16T02:27:44.858Z,0.00
2023-02-16T02:28:44.848Z,0.00
2023-02-16T02:29:44.838Z,0.00
2023-02-16T02:30:44.895Z,0.00
2023-02-16T02:31:44.927Z,0.00
2023-02-16T02:32:44.805Z,0.00
2023-02-16T02:33:44.801Z,0.00
2023-02-16T02:34:44.787Z,0.00
2023-02-16T02:35:44.782Z,0.00
2023-02-16T02:36:44.771Z,0.00
2023-02-16T02:37:44.761Z,0.00
2023-02-16T02:38:44.754Z,0.00
2023-02-16T02:41:27.736Z,0.00
2023-02-16T02:42:27.733Z,0.00
2023-02-16T02:43:27.716Z,0.00
2023-02-16T02:45:40.922Z,0.00
2023-02-16T02:46:40.918Z,0.00
2023-02-16T02:47:40.862Z,0.00
2023-02-16T02:48:40.878Z,0.00
2023-02-16T02:49:40.859Z,0.00
2023-02-16T02:50:40.836Z,0.00
2023-02-16T02:51:40.825Z,0.00
2023-02-16T02:52:40.814Z,0.00
2023-02-16T02:53:40.800Z,0.00
2023-02-16T02:56:40.775Z,0.00
2023-02-16T02:59:06.005Z,0.00
2023-02-16T03:00:03.375Z,0.00
2023-02-16T03:01:03.748Z,0.00
2023-02-16T03:02:03.402Z,0.00
2023-02-16T03:03:03.341Z,0.00
2023-02-16T03:04:03.334Z,0.00
2023-02-16T03:05:03.322Z,0.00
2023-02-16T03:06:03.316Z,0.00
2023-02-16T03:07:03.303Z,0.00
2023-02-16T03:08:03.295Z,0.00
2023-02-16T03:09:03.285Z,0.00
2023-02-16T03:10:03.275Z,0.00
2023-02-16T03:11:03.627Z,0.00
2023-02-16T03:12:03.260Z,0.00
2023-02-16T03:13:03.247Z,0.00
2023-02-16T03:14:03.246Z,0.00
2023-02-16T03:15:03.230Z,0.00
2023-02-16T03:16:03.274Z,0.00
2023-02-16T03:17:03.209Z,0.00
2023-02-16T03:18:03.221Z,0.00
2023-02-16T03:19:03.184Z,0.00
2023-02-16T03:20:03.178Z,0.00
2023-02-16T03:21:03.455Z,0.00
2023-02-16T03:22:03.158Z,0.00
2023-02-16T03:23:03.150Z,0.00
2023-02-16T03:24:03.142Z,0.00
2023-02-16T03:25:03.149Z,0.00
2023-02-16T03:26:03.145Z,0.00
2023-02-16T03:27:03.102Z,0.00
2023-02-16T03:28:03.103Z,0.00
2023-02-16T03:29:03.092Z,0.00
2023-02-16T03:30:03.111Z,0.00
2023-02-16T03:31:03.560Z,0.00
2023-02-16T03:32:03.104Z,0.00
2023-02-16T03:33:03.046Z,0.00
2023-02-16T03:34:03.058Z,0.00
2023-02-16T03:35:03.021Z,0.00
2023-02-16T03:36:03.015Z,0.00
2023-02-16T03:37:03.005Z,0.00
2023-02-16T03:38:02.996Z,0.00
2023-02-16T03:39:02.983Z,0.00
2023-02-16T03:40:02.974Z,0.00
2023-02-16T03:41:03.292Z,0.00
2023-02-16T03:42:02.955Z,0.00
2023-02-16T03:43:02.968Z,0.00
2023-02-16T03:44:02.938Z,0.00
2023-02-16T03:45:02.921Z,0.00
2023-02-16T03:46:03.003Z,0.00
2023-02-16T03:47:02.904Z,0.00
2023-02-16T03:48:02.895Z,0.00
2023-02-16T03:49:02.885Z,0.00
2023-02-16T03:50:02.920Z,0.00
2023-02-16T03:51:03.423Z,0.00
2023-02-16T03:52:02.855Z,0.00
2023-02-16T03:53:02.843Z,0.00
2023-02-16T03:54:02.833Z,0.00
2023-02-16T03:58:02.796Z,0.00
2023-02-16T03:59:02.780Z,0.00
2023-02-16T04:00:02.840Z,0.00
2023-02-16T04:01:03.078Z,0.00
2023-02-16T04:02:02.848Z,0.00
2023-02-16T04:03:02.743Z,0.00
2023-02-16T04:04:02.822Z,0.00
2023-02-16T04:05:02.723Z,0.00
2023-02-16T04:06:02.738Z,0.00
2023-02-16T04:07:02.705Z,0.00
2023-02-16T04:08:02.692Z,0.00
2023-02-16T04:09:02.681Z,0.00
2023-02-16T04:10:02.676Z,0.00
2023-02-16T04:11:02.957Z,0.00
2023-02-16T04:12:02.654Z,0.00
2023-02-16T04:13:02.651Z,0.00
2023-02-16T04:14:02.633Z,0.00
2023-02-16T04:15:02.621Z,0.00
2023-02-16T04:16:02.621Z,0.00
2023-02-16T04:17:02.601Z,0.00
2023-02-16T04:18:02.592Z,0.00
2023-02-16T04:19:02.581Z,0.00
2023-02-16T04:20:02.575Z,0.00
2023-02-16T04:21:02.959Z,0.00
2023-02-16T04:22:02.578Z,0.00
2023-02-16T04:23:02.540Z,0.00
2023-02-16T04:24:02.537Z,0.00
2023-02-16T04:25:02.531Z,0.00
2023-02-16T04:26:02.516Z,0.00
2023-02-16T04:27:02.501Z,0.00
2023-02-16T04:28:02.497Z,0.00
2023-02-16T04:29:02.485Z,0.00
2023-02-16T04:30:02.566Z,0.00
2023-02-16T04:31:02.961Z,0.00
2023-02-16T04:32:02.562Z,0.00
2023-02-16T04:33:02.439Z,0.00
2023-02-16T04:34:02.776Z,0.00
2023-02-16T04:35:02.415Z,0.00
2023-02-16T04:36:02.410Z,0.00
2023-02-16T04:37:02.413Z,0.00
2023-02-16T04:38:02.501Z,0.00
2023-02-16T04:39:02.373Z,0.00
2023-02-16T04:40:02.366Z,0.00
2023-02-16T04:41:02.820Z,0.00
2023-02-16T04:42:02.345Z,0.00
2023-02-16T04:43:02.330Z,0.00
2023-02-16T04:44:02.356Z,0.00
2023-02-16T04:45:02.313Z,0.00
2023-02-16T04:46:02.376Z,0.00
2023-02-16T04:47:02.303Z,0.00
2023-02-16T04:48:02.280Z,0.00
2023-02-16T04:49:02.273Z,0.00
2023-02-16T04:50:02.298Z,0.00
2023-02-16T04:51:02.622Z,0.00
2023-02-16T04:52:02.241Z,0.00
2023-02-16T04:53:02.238Z,0.00
2023-02-16T04:54:02.283Z,0.00
2023-02-16T04:55:02.214Z,0.00
2023-02-16T04:56:02.200Z,0.00
2023-02-16T04:57:02.194Z,0.00
2023-02-16T04:58:02.192Z,0.00
2023-02-16T04:59:02.166Z,0.00
2023-02-16T05:00:02.160Z,0.00
2023-02-16T05:01:02.513Z,0.00
2023-02-16T05:02:02.150Z,0.00
2023-02-16T05:03:02.125Z,0.00
2023-02-16T05:04:02.121Z,0.00
2023-02-16T05:05:02.111Z,0.00
2023-02-16T05:06:02.097Z,0.00
2023-02-16T05:07:02.153Z,0.00
2023-02-16T05:08:02.076Z,0.00
2023-02-16T05:09:02.066Z,0.00
2023-02-16T05:10:02.078Z,0.00
2023-02-16T05:11:02.459Z,0.00
2023-02-16T05:12:02.045Z,0.00
2023-02-16T05:13:02.025Z,0.00
2023-02-16T05:14:02.014Z,0.00
2023-02-16T05:15:02.020Z,0.00
2023-02-16T05:16:02.113Z,0.00
2023-02-16T05:17:01.989Z,0.00
2023-02-16T05:18:01.970Z,0.00
2023-02-16T05:19:01.967Z,0.00
2023-02-16T05:20:01.993Z,0.00
2023-02-16T05:21:02.278Z,0.00
2023-02-16T05:22:01.952Z,0.00
2023-02-16T05:23:01.924Z,0.00
2023-02-16T05:24:01.914Z,0.00
2023-02-16T05:25:01.910Z,0.00
2023-02-16T05:26:01.909Z,0.00
2023-02-16T05:27:01.887Z,0.00
2023-02-16T05:28:01.915Z,0.00
2023-02-16T05:29:01.868Z,0.00
2023-02-16T05:30:01.983Z,0.00
2023-02-16T05:31:02.297Z,0.00
2023-02-16T05:32:04.482Z,0.00
2023-02-16T05:33:01.823Z,0.00
2023-02-16T05:34:01.818Z,0.00
2023-02-16T05:35:01.829Z,0.00
2023-02-16T05:36:01.791Z,0.00
2023-02-16T05:37:01.796Z,0.00
2023-02-16T05:38:01.771Z,0.00
2023-02-16T05:39:01.782Z,0.00
2023-02-16T05:40:01.757Z,0.00
2023-02-16T05:41:02.037Z,0.00
2023-02-16T05:43:04.957Z,0.00
2023-02-16T05:44:01.710Z,0.00
2023-02-16T05:45:01.702Z,0.00
2023-02-16T05:46:01.721Z,0.00
2023-02-16T05:47:01.683Z,0.00
2023-02-16T05:48:01.672Z,0.00
2023-02-16T05:49:01.662Z,0.00
2023-02-16T05:50:01.660Z,0.00
2023-02-16T05:51:02.303Z,0.00
2023-02-16T05:52:01.640Z,0.00
2023-02-16T05:53:01.619Z,0.00
2023-02-16T05:54:01.610Z,0.00
2023-02-16T05:56:01.589Z,0.00
2023-02-16T05:57:01.583Z,0.00
2023-02-16T05:58:01.590Z,0.00
2023-02-16T05:59:01.563Z,0.00
2023-02-16T06:00:01.556Z,0.00
2023-02-16T06:01:01.860Z,0.00
2023-02-16T06:02:01.529Z,0.00
2023-02-16T06:03:01.633Z,0.00
2023-02-16T06:04:01.651Z,0.00
2023-02-16T06:05:01.520Z,0.00
2023-02-16T06:06:01.493Z,0.00
2023-02-16T06:07:01.488Z,0.00
2023-02-16T06:08:01.470Z,0.00
2023-02-16T06:09:01.457Z,0.00
2023-02-16T06:10:01.451Z,0.00
2023-02-16T06:11:01.655Z,0.00
2023-02-16T06:12:01.429Z,0.00
2023-02-16T06:13:01.417Z,0.00
2023-02-16T06:14:01.429Z,0.00
2023-02-16T06:15:01.405Z,0.00
2023-02-16T06:16:01.453Z,0.00
2023-02-16T06:17:01.428Z,0.00
2023-02-16T06:18:01.367Z,0.00
2023-02-16T06:19:01.356Z,0.00
2023-02-16T06:20:01.344Z,0.00
2023-02-16T06:21:01.357Z,0.00
2023-02-16T06:22:01.333Z,0.00
2023-02-16T06:23:01.318Z,0.00
2023-02-16T06:24:01.307Z,0.00
2023-02-16T06:25:01.293Z,4.00
2023-02-16T06:26:01.285Z,0.00
2023-02-16T06:27:01.359Z,0.00
2023-02-16T06:28:01.262Z,0.00
2023-02-16T06:29:01.256Z,4.00
2023-02-16T06:30:01.426Z,4.00
2023-02-16T06:31:01.332Z,0.00
2023-02-16T06:32:01.350Z,0.00
2023-02-16T06:33:01.214Z,4.00
2023-02-16T06:34:01.200Z,4.00
2023-02-16T06:35:01.191Z,4.00
2023-02-16T06:36:01.178Z,4.00
2023-02-16T06:37:01.176Z,4.00
2023-02-16T06:38:01.160Z,4.00
2023-02-16T06:39:01.608Z,4.00
2023-02-16T06:40:01.138Z,8.00
2023-02-16T06:41:01.156Z,4.00
2023-02-16T06:42:01.125Z,8.00
2023-02-16T06:43:01.113Z,8.00
2023-02-16T06:44:01.099Z,12.00
2023-02-16T06:45:01.128Z,8.00
2023-02-16T06:46:01.094Z,12.00
2023-02-16T06:47:01.074Z,12.00
2023-02-16T06:48:01.056Z,12.00
2023-02-16T06:49:01.046Z,12.00
2023-02-16T06:50:01.040Z,16.00
2023-02-16T06:51:01.046Z,20.00
2023-02-16T06:52:01.028Z,16.00
2023-02-16T06:53:01.017Z,20.00
2023-02-16T06:54:01.000Z,24.00
2023-02-16T06:55:00.986Z,28.00
2023-02-16T06:56:00.984Z,28.00
2023-02-16T06:57:00.968Z,32.00
2023-02-16T06:58:00.963Z,36.00
2023-02-16T06:59:00.969Z,36.00
2023-02-16T07:00:00.950Z,40.00
2023-02-16T07:01:01.043Z,40.00
2023-02-16T07:02:00.994Z,48.00
2023-02-16T07:03:00.933Z,48.00
2023-02-16T07:04:00.897Z,52.00
2023-02-16T07:05:00.919Z,48.00
2023-02-16T07:06:00.878Z,56.00
2023-02-16T07:07:00.873Z,64.00
2023-02-16T07:08:00.852Z,68.00
2023-02-16T07:10:00.838Z,72.00
2023-02-16T07:11:00.824Z,76.00
2023-02-16T07:12:00.818Z,76.00
2023-02-16T07:13:00.812Z,80.00
2023-02-16T07:14:00.801Z,84.00
2023-02-16T07:15:00.794Z,88.00
2023-02-16T07:16:00.817Z,84.00
2023-02-16T07:17:00.766Z,88.00
2023-02-16T07:18:00.787Z,88.00
2023-02-16T07:19:00.747Z,80.00
2023-02-16T07:20:00.745Z,76.00
2023-02-16T07:21:00.731Z,76.00
2023-02-16T07:22:00.756Z,76.00
2023-02-16T07:23:00.708Z,76.00
2023-02-16T07:24:00.703Z,76.00
2023-02-16T07:25:00.702Z,80.00
2023-02-16T07:26:00.679Z,76.00
2023-02-16T07:27:00.672Z,76.00
2023-02-16T07:28:00.659Z,72.00
2023-02-16T07:30:00.838Z,72.00
2023-02-16T07:31:00.714Z,72.00
2023-02-16T07:32:00.775Z,72.00
2023-02-16T07:33:00.622Z,72.00
2023-02-16T07:34:00.618Z,60.00
2023-02-16T07:35:00.591Z,56.00
2023-02-16T07:36:00.583Z,56.00
2023-02-16T07:38:00.558Z,64.00
2023-02-16T07:39:00.552Z,60.00
2023-02-16T07:40:00.997Z,60.00
2023-02-16T07:41:00.532Z,60.00
2023-02-16T07:42:00.530Z,64.00
2023-02-16T07:43:00.520Z,68.00
2023-02-16T07:44:00.512Z,72.00
2023-02-16T07:45:00.515Z,76.00
2023-02-16T07:46:00.555Z,80.00
2023-02-16T07:47:00.472Z,80.00
2023-02-16T07:48:00.465Z,88.00
2023-02-16T07:50:00.464Z,112.00
2023-02-16T07:51:00.452Z,140.00
2023-02-16T07:52:00.424Z,164.00
2023-02-16T07:53:00.415Z,176.00
2023-02-16T07:54:00.412Z,184.00
2023-02-16T07:55:00.424Z,192.00
2023-02-16T07:56:00.385Z,184.00
2023-02-16T07:57:00.376Z,192.00
2023-02-16T07:58:00.367Z,204.00
2023-02-16T07:59:00.359Z,200.00
2023-02-16T08:00:00.349Z,208.00
2023-02-16T08:01:00.342Z,224.00
2023-02-16T08:02:00.615Z,224.00
2023-02-16T08:03:00.475Z,224.00
2023-02-16T08:04:00.312Z,232.00
2023-02-16T08:05:00.298Z,228.00
2023-02-16T08:06:00.314Z,240.00
2023-02-16T08:07:00.281Z,240.00
2023-02-16T08:08:00.273Z,244.00
2023-02-16T08:09:00.285Z,240.00
2023-02-16T08:10:00.252Z,232.00
2023-02-16T08:11:12.986Z,232.00
2023-02-16T08:12:00.234Z,240.00
2023-02-16T08:14:00.226Z,204.00
2023-02-16T08:15:00.209Z,204.00
2023-02-16T08:16:00.261Z,188.00
2023-02-16T08:17:00.352Z,164.00
2023-02-16T08:18:00.207Z,152.00
2023-02-16T08:19:00.184Z,152.00
2023-02-16T08:20:00.195Z,172.00
2023-02-16T08:23:00.248Z,240.00
2023-02-16T08:24:00.127Z,248.00
2023-02-16T08:25:00.125Z,244.00
2023-02-16T08:26:00.127Z,216.00
2023-02-16T08:27:00.132Z,220.00
2023-02-16T08:28:00.113Z,236.00
2023-02-16T08:29:00.122Z,256.00
2023-02-16T08:30:00.126Z,280.00
2023-02-16T08:31:00.116Z,336.00
2023-02-16T08:32:00.108Z,380.00
2023-02-16T08:33:00.048Z,396.00
2023-02-16T08:34:00.044Z,392.00
2023-02-16T08:35:00.032Z,356.00
2023-02-16T08:36:00.032Z,320.00
2023-02-16T08:37:00.019Z,284.00
2023-02-16T08:38:00.006Z,272.00
2023-02-16T08:39:00.014Z,276.00
2023-02-16T08:39:59.990Z,284.00
2023-02-16T08:40:59.976Z,324.00
2023-02-16T08:41:59.965Z,356.00
2023-02-16T08:42:59.958Z,360.00
2023-02-16T08:43:59.951Z,352.00
2023-02-16T08:45:00.176Z,368.00
2023-02-16T08:45:59.980Z,364.00
2023-02-16T08:46:59.922Z,384.00
2023-02-16T08:49:59.898Z,484.00
2023-02-16T08:50:59.880Z,476.00
2023-02-16T08:51:59.877Z,468.00
2023-02-16T08:52:59.862Z,484.00
2023-02-16T08:53:59.858Z,524.00
2023-02-16T08:54:59.879Z,568.00
2023-02-16T08:57:59.818Z,548.00
2023-02-16T08:58:59.806Z,520.00
2023-02-16T09:00:59.819Z,616.00
2023-02-16T09:01:59.862Z,636.00
2023-02-16T09:02:59.777Z,596.00
2023-02-16T09:03:59.763Z,584.00
2023-02-16T09:04:59.753Z,584.00
2023-02-16T09:05:59.748Z,560.00
2023-02-16T09:06:59.731Z,556.00
2023-02-16T09:07:59.731Z,540.00
2023-02-16T09:08:59.723Z,520.00
2023-02-16T09:09:59.715Z,516.00
2023-02-16T09:10:59.757Z,508.00
2023-02-16T09:11:59.701Z,540.00
2023-02-16T09:12:59.686Z,552.00
2023-02-16T09:13:59.685Z,612.00
2023-02-16T09:14:59.674Z,640.00
2023-02-16T09:15:59.667Z,588.00
2023-02-16T09:16:59.766Z,568.00
2023-02-16T09:17:59.652Z,600.00
2023-02-16T09:18:59.646Z,660.00
2023-02-16T09:19:59.636Z,828.00
2023-02-16T09:20:59.629Z,924.00
2023-02-16T09:21:59.640Z,900.00
2023-02-16T09:22:59.633Z,828.00
2023-02-16T09:23:59.613Z,772.00
2023-02-16T09:24:59.609Z,768.00
2023-02-16T09:25:59.610Z,828.00
2023-02-16T09:26:59.615Z,772.00
2023-02-16T09:27:59.587Z,804.00
2023-02-16T09:28:59.574Z,948.00
2023-02-16T09:29:59.593Z,912.00
2023-02-16T09:30:59.679Z,712.00
2023-02-16T09:31:59.608Z,632.00
2023-02-16T09:32:59.555Z,592.00
2023-02-16T09:33:59.542Z,604.00
2023-02-16T09:34:59.537Z,688.00
2023-02-16T09:35:59.533Z,716.00
2023-02-16T09:36:59.526Z,728.00
2023-02-16T09:37:59.517Z,752.00
2023-02-16T09:38:59.524Z,756.00
2023-02-16T09:39:59.511Z,796.00
2023-02-16T09:40:59.511Z,860.00
2023-02-16T09:41:59.623Z,880.00
2023-02-16T09:42:59.551Z,868.00
2023-02-16T09:43:59.476Z,800.00
2023-02-16T09:44:59.473Z,704.00
2023-02-16T09:45:59.520Z,664.00
2023-02-16T09:46:59.457Z,628.00
2023-02-16T09:47:59.460Z,580.00
2023-02-16T09:48:59.441Z,540.00
2023-02-16T09:49:59.440Z,508.00
2023-02-16T09:50:59.435Z,484.00
2023-02-16T09:51:59.433Z,468.00
2023-02-16T09:52:59.418Z,460.00
2023-02-16T09:53:59.414Z,456.00
2023-02-16T09:54:59.410Z,468.00
2023-02-16T09:55:59.417Z,504.00
2023-02-16T09:56:59.402Z,568.00
2023-02-16T09:57:59.387Z,636.00
2023-02-16T09:58:59.443Z,692.00
2023-02-16T09:59:59.374Z,736.00
2023-02-16T10:00:59.393Z,704.00
2023-02-16T10:01:59.425Z,664.00
2023-02-16T10:02:59.354Z,616.00
2023-02-16T10:03:59.352Z,564.00
2023-02-16T10:04:59.342Z,508.00
2023-02-16T10:05:59.336Z,460.00
2023-02-16T10:06:59.328Z,424.00
2023-02-16T10:07:59.322Z,392.00
2023-02-16T10:08:59.316Z,380.00
2023-02-16T10:09:59.314Z,372.00
2023-02-16T10:10:59.303Z,368.00
2023-02-16T10:11:59.299Z,372.00
2023-02-16T10:12:59.292Z,376.00
2023-02-16T10:13:59.289Z,368.00
2023-02-16T10:14:59.304Z,356.00
2023-02-16T10:15:59.326Z,348.00
2023-02-16T10:16:59.268Z,336.00
2023-02-16T10:17:59.264Z,328.00
2023-02-16T10:18:59.254Z,312.00
2023-02-16T10:19:59.248Z,288.00
2023-02-16T10:20:59.241Z,256.00
2023-02-16T10:21:59.239Z,244.00
2023-02-16T10:22:59.237Z,228.00
2023-02-16T10:23:59.226Z,220.00
2023-02-16T10:24:59.221Z,216.00
2023-02-16T10:25:59.217Z,236.00
2023-02-16T10:26:59.204Z,224.00
2023-02-16T10:27:59.200Z,200.00
2023-02-16T10:28:59.193Z,212.00
2023-02-16T10:29:59.206Z,212.00
2023-02-16T10:30:59.294Z,212.00
2023-02-16T10:31:59.282Z,216.00
2023-02-16T10:32:59.170Z,240.00
2023-02-16T10:33:59.166Z,252.00
2023-02-16T10:34:59.160Z,268.00
2023-02-16T10:35:59.156Z,276.00
2023-02-16T10:36:59.149Z,272.00
2023-02-16T10:37:59.154Z,276.00
2023-02-16T10:38:59.178Z,276.00
2023-02-16T10:39:59.134Z,272.00
2023-02-16T10:40:59.133Z,280.00
2023-02-16T10:41:59.296Z,280.00
2023-02-16T10:42:59.112Z,284.00
2023-02-16T10:43:59.109Z,276.00
2023-02-16T10:44:59.102Z,268.00
2023-02-16T10:45:59.143Z,260.00
2023-02-16T10:46:59.170Z,252.00
2023-02-16T10:47:59.086Z,256.00
2023-02-16T10:48:59.081Z,260.00
2023-02-16T10:49:59.074Z,256.00
2023-02-16T10:50:59.085Z,264.00
2023-02-16T10:51:59.064Z,256.00
2023-02-16T10:52:59.063Z,264.00
2023-02-16T10:53:59.051Z,264.00
2023-02-16T10:54:59.043Z,260.00
2023-02-16T10:55:59.040Z,256.00
2023-02-16T10:56:59.037Z,256.00
2023-02-16T10:57:59.047Z,264.00
2023-02-16T10:58:59.024Z,292.00
2023-02-16T10:59:59.022Z,308.00
2023-02-16T11:00:59.011Z,324.00
2023-02-16T11:01:59.006Z,340.00
2023-02-16T11:02:59.025Z,344.00
2023-02-16T11:03:58.994Z,352.00
2023-02-16T11:04:58.990Z,368.00
2023-02-16T11:05:58.990Z,376.00
2023-02-16T11:06:58.982Z,388.00
2023-02-16T11:07:58.968Z,396.00
2023-02-16T11:08:58.964Z,396.00
2023-02-16T11:09:58.958Z,408.00
2023-02-16T11:10:58.951Z,424.00
2023-02-16T11:11:58.954Z,448.00
2023-02-16T11:12:58.941Z,464.00
2023-02-16T11:13:58.935Z,488.00
2023-02-16T11:14:58.934Z,504.00
2023-02-16T11:15:58.954Z,516.00
2023-02-16T11:16:58.918Z,528.00
2023-02-16T11:17:58.912Z,552.00
2023-02-16T11:18:58.983Z,568.00
2023-02-16T11:20:01.436Z,572.00
2023-02-16T11:20:58.894Z,564.00
2023-02-16T11:21:58.895Z,556.00
2023-02-16T11:22:58.880Z,552.00
2023-02-16T11:23:58.886Z,548.00
2023-02-16T11:24:58.871Z,552.00
2023-02-16T11:25:58.870Z,536.00
2023-02-16T11:26:58.858Z,512.00
2023-02-16T11:27:58.857Z,484.00
2023-02-16T11:28:58.847Z,460.00
2023-02-16T11:29:58.884Z,432.00
2023-02-16T11:30:58.920Z,404.00
2023-02-16T11:31:58.962Z,404.00
2023-02-16T11:32:58.829Z,432.00
2023-02-16T11:33:58.836Z,468.00
2023-02-16T11:34:58.848Z,492.00
2023-02-16T11:35:58.809Z,508.00
2023-02-16T11:36:58.808Z,528.00
2023-02-16T11:37:58.804Z,560.00
2023-02-16T11:38:58.793Z,560.00
2023-02-16T11:39:58.794Z,520.00
2023-02-16T11:40:58.784Z,468.00
2023-02-16T11:41:58.800Z,476.00
2023-02-16T11:42:58.765Z,496.00
2023-02-16T11:43:58.768Z,504.00
2023-02-16T11:44:58.759Z,500.00
2023-02-16T11:45:58.746Z,480.00
2023-02-16T11:46:58.746Z,456.00
2023-02-16T11:47:58.737Z,416.00
2023-02-16T11:48:58.731Z,320.00
2023-02-16T11:49:58.720Z,284.00
2023-02-16T11:50:58.757Z,296.00
2023-02-16T11:51:58.712Z,288.00
2023-02-16T11:52:58.708Z,280.00
2023-02-16T11:53:58.700Z,308.00
2023-02-16T11:54:58.694Z,312.00
2023-02-16T11:55:58.686Z,300.00
2023-02-16T11:56:58.684Z,288.00
2023-02-16T11:57:58.678Z,288.00
2023-02-16T11:58:58.673Z,288.00
2023-02-16T11:59:58.704Z,296.00
2023-02-16T12:00:58.667Z,296.00
2023-02-16T12:01:58.656Z,304.00
2023-02-16T12:02:58.653Z,284.00
2023-02-16T12:03:58.679Z,284.00
2023-02-16T12:04:58.669Z,284.00
2023-02-16T12:05:58.785Z,284.00
2023-02-16T12:06:58.646Z,280.00
2023-02-16T12:07:58.623Z,272.00
2023-02-16T12:08:58.627Z,252.00
2023-02-16T12:09:58.612Z,244.00
2023-02-16T12:10:58.628Z,244.00
2023-02-16T12:11:58.611Z,248.00
2023-02-16T12:12:58.597Z,268.00
2023-02-16T12:13:58.591Z,296.00
2023-02-16T12:14:58.591Z,320.00
2023-02-16T12:15:58.607Z,328.00
2023-02-16T12:16:58.612Z,348.00
2023-02-16T12:17:58.576Z,360.00
2023-02-16T12:18:58.571Z,356.00
2023-02-16T12:19:58.563Z,368.00
2023-02-16T12:20:58.562Z,368.00
2023-02-16T12:21:58.550Z,360.00
2023-02-16T12:22:58.561Z,348.00
2023-02-16T12:23:58.548Z,332.00
2023-02-16T12:24:58.532Z,304.00
2023-02-16T12:25:58.525Z,284.00
2023-02-16T12:26:58.522Z,280.00
2023-02-16T12:27:58.511Z,276.00
2023-02-16T12:28:58.517Z,288.00
2023-02-16T12:29:58.521Z,292.00
2023-02-16T12:30:58.550Z,280.00
2023-02-16T12:31:58.538Z,260.00
2023-02-16T12:32:58.496Z,252.00
2023-02-16T12:33:58.479Z,256.00
2023-02-16T12:34:58.477Z,268.00
2023-02-16T12:35:58.466Z,288.00
2023-02-16T12:36:58.464Z,312.00
2023-02-16T12:37:58.463Z,340.00
2023-02-16T12:38:58.478Z,352.00
2023-02-16T12:39:58.444Z,372.00
2023-02-16T12:40:58.629Z,392.00
2023-02-16T12:41:58.437Z,392.00
2023-02-16T12:42:58.432Z,396.00
2023-02-16T12:43:58.424Z,380.00
2023-02-16T12:44:58.418Z,380.00
2023-02-16T12:45:58.468Z,364.00
2023-02-16T12:46:58.408Z,368.00
2023-02-16T12:47:58.401Z,380.00
2023-02-16T12:48:58.398Z,388.00
2023-02-16T12:49:58.393Z,392.00
2023-02-16T12:50:58.387Z,400.00
2023-02-16T12:51:59.289Z,388.00
2023-02-16T12:52:58.376Z,372.00
2023-02-16T12:53:58.369Z,360.00
2023-02-16T12:54:58.402Z,352.00
2023-02-16T12:55:58.367Z,360.00
2023-02-16T12:56:58.356Z,340.00
2023-02-16T12:57:58.352Z,296.00
2023-02-16T12:58:58.347Z,284.00
2023-02-16T12:59:58.338Z,272.00
2023-02-16T13:00:58.378Z,248.00
2023-02-16T13:01:58.329Z,236.00
2023-02-16T13:02:58.329Z,228.00
2023-02-16T13:03:58.318Z,224.00
2023-02-16T13:04:58.316Z,216.00
2023-02-16T13:05:58.760Z,216.00
2023-02-16T13:06:58.444Z,216.00
2023-02-16T13:07:58.305Z,224.00
2023-02-16T13:08:58.300Z,232.00
2023-02-16T13:09:58.296Z,244.00
2023-02-16T13:10:58.306Z,268.00
2023-02-16T13:11:58.316Z,288.00
2023-02-16T13:12:58.277Z,320.00
2023-02-16T13:13:58.273Z,304.00
2023-02-16T13:14:58.272Z,292.00
2023-02-16T13:15:58.272Z,308.00
2023-02-16T13:16:58.354Z,316.00
2023-02-16T13:17:58.260Z,316.00
2023-02-16T13:18:58.261Z,324.00
2023-02-16T13:19:58.242Z,308.00
2023-02-16T13:20:58.239Z,324.00
2023-02-16T13:21:58.251Z,356.00
2023-02-16T13:22:58.232Z,368.00
2023-02-16T13:23:58.222Z,364.00
2023-02-16T13:24:58.326Z,360.00
2023-02-16T13:25:58.367Z,356.00
2023-02-16T13:26:58.227Z,360.00
2023-02-16T13:27:58.296Z,368.00
2023-02-16T13:28:58.301Z,368.00
2023-02-16T13:29:58.243Z,376.00
2023-02-16T13:30:58.321Z,376.00
2023-02-16T13:31:58.201Z,376.00
2023-02-16T13:32:58.181Z,380.00
2023-02-16T13:33:58.189Z,380.00
2023-02-16T13:34:58.185Z,384.00
2023-02-16T13:35:58.164Z,388.00
2023-02-16T13:36:58.164Z,380.00
2023-02-16T13:37:58.159Z,380.00
2023-02-16T13:38:58.150Z,384.00
2023-02-16T13:39:58.144Z,376.00